Terminal Aerodrome Forecast
Issued by NWS Cleveland, OH

Home | Current Version | Previous Version | Graphics & Text | Print | Product List | Glossary On
Versions: 1 2 3 4 5 6 7 8 9 10 11 12 13 14 15 16 17 18 19
185
FTUS41 KCLE 061406 AAA
TAFYNG
TAF AMD
KYNG 061406Z 0614/0712 25007KT P6SM SCT050 BKN250
      TEMPO 0615/0617 BKN010
     FM070000 18005KT P6SM FEW050 BKN250=

USA.gov is the U.S. government's official web portal to all federal, state and local government web resources and services.